createdAt,value
2018-03-15T00:01:31.724Z,78.95
2018-03-15T00:03:59.384Z,78.93
2018-03-15T00:06:26.992Z,79.03
2018-03-15T00:08:54.625Z,78.95
2018-03-15T00:11:22.241Z,78.90
2018-03-15T00:13:49.876Z,79.00
2018-03-15T00:16:17.488Z,79.10
2018-03-15T00:18:45.126Z,79.04
2018-03-15T00:21:12.742Z,79.14
2018-03-15T00:23:40.378Z,79.08
2018-03-15T00:26:07.990Z,78.97
2018-03-15T00:28:35.640Z,79.06
2018-03-15T00:31:03.257Z,79.10
2018-03-15T00:33:30.868Z,79.10
2018-03-15T00:35:58.585Z,79.25
2018-03-15T00:38:26.202Z,79.17
2018-03-15T00:40:53.841Z,79.16
2018-03-15T00:43:21.478Z,79.22
2018-03-15T00:45:49.154Z,79.20
2018-03-15T00:48:16.804Z,79.21
2018-03-15T00:50:44.469Z,79.24
2018-03-15T00:53:12.081Z,79.23
2018-03-15T00:55:39.717Z,79.13
2018-03-15T00:58:07.337Z,79.15
2018-03-15T01:00:34.988Z,79.13
2018-03-15T01:03:02.677Z,79.12
2018-03-15T01:05:30.288Z,79.06
2018-03-15T01:07:57.926Z,79.13
2018-03-15T01:10:25.567Z,79.05
2018-03-15T01:12:53.228Z,78.94
2018-03-15T01:15:20.840Z,79.05
2018-03-15T01:17:48.483Z,79.14
2018-03-15T01:20:16.109Z,79.14
2018-03-15T01:22:43.772Z,79.01
2018-03-15T01:25:11.445Z,78.99
2018-03-15T01:27:39.081Z,78.99
2018-03-15T01:30:06.758Z,79.08
2018-03-15T01:32:34.389Z,78.97
2018-03-15T01:35:02.099Z,78.96
2018-03-15T01:37:29.753Z,79.00
2018-03-15T01:39:57.416Z,78.93
2018-03-15T01:42:25.172Z,78.81
2018-03-15T01:44:52.849Z,78.88
2018-03-15T01:47:20.513Z,78.85
2018-03-15T01:49:48.156Z,78.99
2018-03-15T01:52:15.776Z,78.79
2018-03-15T01:54:43.412Z,78.78
2018-03-15T01:57:11.024Z,78.59
2018-03-15T01:59:38.650Z,78.77
2018-03-15T02:02:06.272Z,78.76
2018-03-15T02:04:33.941Z,78.81
2018-03-15T02:07:01.556Z,78.77
2018-03-15T02:09:29.273Z,78.79
2018-03-15T02:11:56.936Z,78.66
2018-03-15T02:14:24.592Z,78.61
2018-03-15T02:16:52.260Z,78.64
2018-03-15T02:19:19.916Z,78.51
2018-03-15T02:21:47.539Z,78.53
2018-03-15T02:24:15.161Z,78.50
2018-03-15T02:26:42.905Z,78.45
2018-03-15T02:29:10.611Z,78.54
2018-03-15T02:31:38.337Z,78.47
2018-03-15T02:34:05.948Z,78.58
2018-03-15T02:36:33.662Z,78.72
2018-03-15T02:39:01.326Z,78.61
2018-03-15T02:41:28.976Z,78.70
2018-03-15T02:43:56.645Z,78.52
2018-03-15T02:46:24.313Z,78.52
2018-03-15T02:48:51.944Z,78.55
2018-03-15T02:51:19.638Z,78.53
2018-03-15T02:53:47.296Z,78.40
2018-03-15T02:56:14.917Z,78.38
2018-03-15T02:58:42.615Z,78.44
2018-03-15T03:01:10.389Z,78.23
2018-03-15T03:03:38.048Z,78.13
2018-03-15T03:06:05.651Z,78.19
2018-03-15T03:08:33.293Z,78.24
2018-03-15T03:11:00.900Z,78.14
2018-03-15T03:13:28.533Z,78.29
2018-03-15T03:15:56.159Z,78.30
2018-03-15T03:18:23.815Z,78.45
2018-03-15T03:20:51.482Z,78.50
2018-03-15T03:23:19.143Z,78.44
2018-03-15T03:25:46.813Z,78.44
2018-03-15T03:28:14.429Z,78.46
2018-03-15T03:30:42.088Z,78.23
2018-03-15T03:33:09.792Z,78.25
2018-03-15T03:35:37.469Z,78.48
2018-03-15T03:38:05.118Z,78.55
2018-03-15T03:40:32.753Z,78.55
2018-03-15T03:43:00.453Z,78.48
2018-03-15T03:45:28.088Z,78.31
2018-03-15T03:47:55.708Z,78.33
2018-03-15T03:50:23.345Z,78.46
2018-03-15T03:52:51.001Z,78.49
2018-03-15T03:55:19.229Z,78.40
2018-03-15T03:57:46.941Z,78.52
2018-03-15T04:00:14.604Z,78.48
2018-03-15T04:02:42.263Z,78.58
2018-03-15T04:05:09.907Z,78.64
2018-03-15T04:07:37.517Z,78.77
2018-03-15T04:10:05.133Z,78.85
2018-03-15T04:12:32.772Z,79.04
2018-03-15T04:15:00.384Z,79.09
2018-03-15T04:17:28.031Z,78.99
2018-03-15T04:19:55.644Z,79.01
2018-03-15T04:22:23.355Z,79.13
2018-03-15T04:24:50.964Z,79.26
2018-03-15T04:27:18.693Z,79.20
2018-03-15T04:29:46.301Z,79.34
2018-03-15T04:32:13.935Z,79.27
2018-03-15T04:34:41.544Z,79.26
2018-03-15T04:37:09.236Z,79.18
2018-03-15T04:39:36.901Z,79.17
2018-03-15T04:42:04.520Z,79.12
2018-03-15T04:44:32.157Z,78.99
2018-03-15T04:46:59.769Z,78.94
2018-03-15T04:49:27.406Z,78.82
2018-03-15T04:51:55.022Z,79.03
2018-03-15T04:54:22.652Z,79.08
2018-03-15T04:56:50.265Z,79.08
2018-03-15T04:59:17.913Z,78.88
2018-03-15T05:01:45.531Z,78.89
2018-03-15T05:04:13.214Z,78.69
2018-03-15T05:06:40.884Z,78.78
2018-03-15T05:09:08.671Z,78.74
2018-03-15T05:11:36.307Z,78.61
2018-03-15T05:14:03.962Z,78.60
2018-03-15T05:16:31.572Z,78.58
2018-03-15T05:18:59.176Z,78.55
2018-03-15T05:21:26.817Z,78.50
2018-03-15T05:23:54.465Z,78.50
2018-03-15T05:26:22.184Z,78.41
2018-03-15T05:28:49.853Z,78.64
2018-03-15T05:31:17.514Z,78.61
2018-03-15T05:33:45.571Z,78.57
2018-03-15T05:36:13.353Z,78.48
2018-03-15T05:38:40.972Z,78.40
2018-03-15T05:41:08.669Z,78.55
2018-03-15T05:43:36.284Z,78.37
2018-03-15T05:46:04.000Z,78.50
2018-03-15T05:48:31.666Z,78.35
2018-03-15T05:50:59.319Z,78.49
2018-03-15T05:53:26.983Z,78.37
2018-03-15T05:55:54.813Z,78.33
2018-03-15T05:58:22.453Z,78.25
2018-03-15T06:00:50.066Z,78.20
2018-03-15T06:03:17.698Z,77.95
2018-03-15T06:05:45.399Z,77.90
2018-03-15T06:08:13.274Z,77.91
2018-03-15T06:10:40.929Z,77.90
2018-03-15T06:13:09.049Z,77.65
2018-03-15T06:15:36.669Z,77.24
2018-03-15T06:18:04.380Z,77.33
2018-03-15T06:20:31.988Z,77.06
2018-03-15T06:22:59.755Z,76.71
2018-03-15T06:25:27.529Z,76.55
2018-03-15T06:27:55.400Z,76.20
2018-03-15T06:30:23.062Z,75.78
2018-03-15T06:32:50.685Z,75.91
2018-03-15T06:35:18.385Z,75.24
2018-03-15T06:37:46.002Z,75.08
2018-03-15T06:40:13.629Z,75.20
2018-03-15T06:42:41.232Z,74.64
2018-03-15T06:45:08.855Z,74.76
2018-03-15T06:47:36.466Z,74.56
2018-03-15T06:50:04.105Z,74.48
2018-03-15T06:52:31.822Z,74.29
2018-03-15T06:54:59.448Z,74.22
2018-03-15T06:57:27.143Z,74.43
2018-03-15T06:59:54.748Z,74.23
2018-03-15T07:02:22.381Z,73.70
2018-03-15T07:04:50.032Z,73.59
2018-03-15T07:07:17.692Z,73.58
2018-03-15T07:09:45.290Z,73.11
2018-03-15T07:12:13.020Z,72.78
2018-03-15T07:14:40.620Z,72.88
2018-03-15T07:17:08.265Z,72.75
2018-03-15T07:19:35.904Z,72.62
2018-03-15T07:22:03.532Z,72.43
2018-03-15T07:24:31.141Z,72.25
2018-03-15T07:26:58.768Z,72.15
2018-03-15T07:29:26.453Z,72.39
2018-03-15T07:31:54.085Z,72.04
2018-03-15T07:34:21.725Z,71.95
2018-03-15T07:36:49.344Z,72.00
2018-03-15T07:39:17.064Z,71.86
2018-03-15T07:41:44.664Z,71.32
2018-03-15T07:44:12.269Z,71.20
2018-03-15T07:46:39.986Z,71.38
2018-03-15T07:49:07.583Z,71.72
2018-03-15T07:51:35.183Z,71.68
2018-03-15T07:54:02.821Z,70.67
2018-03-15T07:56:30.433Z,70.71
2018-03-15T07:58:58.059Z,70.25
2018-03-15T08:01:25.765Z,70.74
2018-03-15T08:03:53.387Z,70.94
2018-03-15T08:06:21.001Z,70.63
2018-03-15T08:08:48.661Z,70.68
2018-03-15T08:11:16.308Z,70.24
2018-03-15T08:13:43.937Z,70.21
2018-03-15T08:16:11.548Z,69.93
2018-03-15T08:18:39.157Z,70.34
2018-03-15T08:21:06.793Z,70.01
2018-03-15T08:23:34.405Z,69.42
2018-03-15T08:26:02.033Z,69.67
2018-03-15T08:28:29.645Z,69.69
2018-03-15T08:30:57.281Z,69.69
2018-03-15T08:33:24.945Z,69.82
2018-03-15T08:35:52.741Z,69.87
2018-03-15T08:38:20.404Z,69.67
2018-03-15T08:40:48.067Z,69.35
2018-03-15T08:43:15.667Z,69.52
2018-03-15T08:45:43.305Z,69.02
2018-03-15T08:48:10.929Z,69.08
2018-03-15T08:50:38.564Z,69.00
2018-03-15T08:53:06.182Z,68.80
2018-03-15T08:55:33.837Z,68.83
2018-03-15T08:58:01.448Z,69.16
2018-03-15T09:00:29.095Z,69.04
2018-03-15T09:02:56.711Z,69.09
2018-03-15T09:05:24.329Z,68.80
2018-03-15T09:07:51.969Z,69.16
2018-03-15T09:10:19.605Z,68.57
2018-03-15T09:12:47.260Z,68.76
2018-03-15T09:15:14.874Z,68.52
2018-03-15T09:17:42.506Z,68.00
2018-03-15T09:20:10.152Z,68.39
2018-03-15T09:22:37.798Z,68.21
2018-03-15T09:25:05.417Z,68.08
2018-03-15T09:27:33.045Z,67.62
2018-03-15T09:30:00.663Z,67.56
2018-03-15T09:32:28.365Z,67.54
2018-03-15T09:34:56.039Z,67.38
2018-03-15T09:37:23.693Z,66.73
2018-03-15T09:39:51.320Z,66.68
2018-03-15T09:42:18.991Z,66.29
2018-03-15T09:44:47.186Z,66.36
2018-03-15T09:47:14.822Z,65.99
2018-03-15T09:49:42.517Z,65.61
2018-03-15T09:52:10.140Z,65.38
2018-03-15T09:54:37.836Z,65.03
2018-03-15T09:57:05.476Z,64.74
2018-03-15T09:59:33.131Z,64.63
2018-03-15T10:02:00.833Z,64.66
2018-03-15T10:04:28.597Z,64.72
2018-03-15T10:06:56.256Z,64.64
2018-03-15T10:09:23.915Z,64.10
2018-03-15T10:11:51.588Z,63.58
2018-03-15T10:14:19.255Z,62.98
2018-03-15T10:16:46.918Z,62.81
2018-03-15T10:19:14.565Z,62.73
2018-03-15T10:21:42.231Z,63.21
2018-03-15T10:24:09.948Z,61.89
2018-03-15T10:26:37.577Z,62.26
2018-03-15T10:29:05.216Z,62.12
2018-03-15T10:31:32.889Z,61.44
2018-03-15T10:34:00.528Z,61.16
2018-03-15T10:36:28.180Z,60.89
2018-03-15T10:38:55.792Z,61.16
2018-03-15T10:41:23.530Z,60.51
2018-03-15T10:43:51.200Z,60.84
2018-03-15T10:46:18.841Z,60.64
2018-03-15T10:48:46.481Z,59.90
2018-03-15T10:51:14.141Z,60.54
2018-03-15T10:53:41.761Z,60.89
2018-03-15T10:56:09.517Z,60.70
2018-03-15T10:58:37.145Z,60.59
2018-03-15T11:01:06.715Z,59.49
2018-03-15T11:03:40.016Z,59.70
2018-03-15T11:06:10.395Z,59.89
2018-03-15T11:08:38.016Z,59.54
2018-03-15T11:11:15.257Z,59.18
2018-03-15T11:13:42.911Z,59.13
2018-03-15T11:16:10.587Z,59.08
2018-03-15T11:18:38.217Z,59.30
2018-03-15T11:21:05.877Z,59.28
2018-03-15T11:23:33.575Z,58.92
2018-03-15T11:26:01.229Z,58.43
2018-03-15T11:28:28.879Z,59.26
2018-03-15T11:30:56.560Z,59.09
2018-03-15T11:33:24.221Z,58.31
2018-03-15T11:35:51.853Z,57.66
2018-03-15T11:38:19.509Z,57.66
2018-03-15T11:40:47.127Z,57.93
2018-03-15T11:43:14.869Z,57.50
2018-03-15T11:45:42.504Z,57.71
2018-03-15T11:48:10.161Z,57.84
2018-03-15T11:50:37.831Z,58.27
2018-03-15T11:53:05.459Z,57.44
2018-03-15T11:55:33.193Z,57.95
2018-03-15T11:58:00.954Z,57.82
2018-03-15T12:00:28.592Z,57.88
2018-03-15T12:02:56.245Z,57.23
2018-03-15T12:05:23.873Z,57.14
2018-03-15T12:07:51.605Z,56.44
2018-03-15T12:10:19.264Z,56.58
2018-03-15T12:12:46.897Z,56.50
2018-03-15T12:15:14.535Z,56.63
2018-03-15T12:17:42.257Z,56.88
2018-03-15T12:20:09.912Z,56.91
2018-03-15T12:22:37.516Z,56.54
2018-03-15T12:25:05.145Z,56.29
2018-03-15T12:27:32.744Z,56.38
2018-03-15T12:30:00.373Z,56.29
2018-03-15T12:32:28.019Z,55.25
2018-03-15T12:34:55.684Z,54.96
2018-03-15T12:37:23.345Z,55.25
2018-03-15T12:39:50.988Z,55.38
2018-03-15T12:42:18.607Z,54.91
2018-03-15T12:44:46.237Z,54.47
2018-03-15T12:47:13.904Z,54.71
2018-03-15T12:49:41.538Z,54.61
2018-03-15T12:52:09.140Z,54.55
2018-03-15T12:54:36.779Z,55.28
2018-03-15T12:57:04.409Z,55.02
2018-03-15T12:59:32.112Z,55.30
2018-03-15T13:01:59.777Z,55.92
2018-03-15T13:04:27.436Z,56.18
2018-03-15T13:06:55.064Z,55.11
2018-03-15T13:09:22.668Z,55.19
2018-03-15T13:11:50.302Z,55.50
2018-03-15T13:14:17.907Z,55.11
2018-03-15T13:16:45.653Z,55.42
2018-03-15T13:19:13.313Z,55.73
2018-03-15T13:21:40.967Z,55.96
2018-03-15T13:24:08.572Z,56.66
2018-03-15T13:26:36.301Z,56.60
2018-03-15T13:29:03.966Z,56.95
2018-03-15T13:31:31.598Z,57.49
2018-03-15T13:33:59.218Z,57.50
2018-03-15T13:36:26.844Z,57.43
2018-03-15T13:38:54.471Z,57.12
2018-03-15T13:41:22.172Z,57.25
2018-03-15T13:43:49.874Z,56.61
2018-03-15T13:46:17.500Z,56.55
2018-03-15T13:48:45.133Z,56.18
2018-03-15T13:51:12.741Z,56.17
2018-03-15T13:53:40.372Z,56.74
2018-03-15T13:56:08.054Z,56.65
2018-03-15T13:58:35.684Z,56.19
2018-03-15T14:01:03.378Z,55.71
2018-03-15T14:03:31.008Z,55.80
2018-03-15T14:05:58.701Z,56.56
2018-03-15T14:08:26.561Z,56.45
2018-03-15T14:10:54.235Z,56.15
2018-03-15T14:13:21.886Z,56.48
2018-03-15T14:15:49.570Z,56.45
2018-03-15T14:18:17.172Z,56.76
2018-03-15T14:20:44.800Z,56.59
2018-03-15T14:23:12.441Z,56.74
2018-03-15T14:25:40.109Z,57.13
2018-03-15T14:28:07.769Z,56.47
2018-03-15T14:30:35.409Z,56.62
2018-03-15T14:33:03.013Z,57.03
2018-03-15T14:35:30.744Z,57.20
2018-03-15T14:37:58.351Z,57.01
2018-03-15T14:40:25.985Z,57.13
2018-03-15T14:42:53.579Z,57.28
2018-03-15T14:45:21.634Z,57.80
2018-03-15T14:47:49.241Z,57.47
2018-03-15T14:50:16.873Z,57.20
2018-03-15T14:52:44.538Z,57.24
2018-03-15T14:55:12.129Z,57.50
2018-03-15T14:57:39.816Z,57.81
2018-03-15T15:00:07.450Z,57.78
2018-03-15T15:02:35.063Z,57.96
2018-03-15T15:05:02.718Z,57.87
2018-03-15T15:07:30.365Z,57.67
2018-03-15T15:09:58.092Z,57.67
2018-03-15T15:12:25.723Z,58.06
2018-03-15T15:14:53.361Z,57.98
2018-03-15T15:17:20.988Z,58.27
2018-03-15T15:19:48.601Z,58.28
2018-03-15T15:22:16.251Z,58.11
2018-03-15T15:24:43.913Z,58.07
2018-03-15T15:27:11.559Z,58.57
2018-03-15T15:29:39.178Z,58.88
2018-03-15T15:32:06.810Z,59.09
2018-03-15T15:34:34.433Z,58.66
2018-03-15T15:37:02.116Z,58.83
2018-03-15T15:39:29.789Z,58.84
2018-03-15T15:41:57.407Z,58.77
2018-03-15T15:44:25.008Z,58.78
2018-03-15T15:46:52.628Z,59.34
2018-03-15T15:49:20.993Z,59.73
2018-03-15T15:51:48.713Z,59.97
2018-03-15T15:54:16.321Z,60.15
2018-03-15T15:56:44.044Z,60.28
2018-03-15T15:59:11.697Z,60.31
2018-03-15T16:01:39.299Z,60.61
2018-03-15T16:04:06.924Z,60.49
2018-03-15T16:06:34.528Z,60.78
2018-03-15T16:09:02.246Z,60.56
2018-03-15T16:11:29.853Z,60.54
2018-03-15T16:13:57.489Z,60.36
2018-03-15T16:16:25.136Z,60.49
2018-03-15T16:18:52.791Z,60.74
2018-03-15T16:21:20.411Z,60.85
2018-03-15T16:23:48.040Z,60.83
2018-03-15T16:26:15.685Z,60.73
2018-03-15T16:28:43.343Z,60.99
2018-03-15T16:31:10.936Z,61.20
2018-03-15T16:33:38.678Z,61.66
2018-03-15T16:36:06.289Z,62.02
2018-03-15T16:38:33.913Z,62.39
2018-03-15T16:41:01.515Z,62.91
2018-03-15T16:43:29.217Z,63.13
2018-03-15T16:45:56.819Z,63.32
2018-03-15T16:48:24.553Z,63.53
2018-03-15T16:50:52.249Z,63.91
2018-03-15T16:53:19.856Z,64.21
2018-03-15T16:55:47.531Z,64.38
2018-03-15T16:58:15.127Z,64.55
2018-03-15T17:00:42.865Z,64.61
2018-03-15T17:03:10.533Z,64.83
2018-03-15T17:05:38.155Z,64.93
2018-03-15T17:08:05.757Z,65.15
2018-03-15T17:10:33.378Z,65.58
2018-03-15T17:13:01.076Z,65.69
2018-03-15T17:15:28.703Z,65.78
2018-03-15T17:17:56.299Z,66.12
2018-03-15T17:20:23.929Z,66.30
2018-03-15T17:22:51.720Z,66.53
2018-03-15T17:25:19.385Z,66.76
2018-03-15T17:27:46.997Z,67.07
2018-03-15T17:30:14.672Z,67.47
2018-03-15T17:32:42.273Z,67.46
2018-03-15T17:35:09.936Z,67.66
2018-03-15T17:37:37.596Z,67.80
2018-03-15T17:40:05.196Z,67.84
2018-03-15T17:42:32.924Z,67.99
2018-03-15T17:45:00.537Z,68.05
2018-03-15T17:47:28.252Z,68.02
2018-03-15T17:49:56.012Z,68.07
2018-03-15T17:52:23.668Z,68.13
2018-03-15T17:54:51.348Z,68.03
2018-03-15T17:57:18.971Z,67.99
2018-03-15T17:59:46.576Z,68.10
2018-03-15T18:02:14.287Z,68.03
2018-03-15T18:04:41.905Z,68.02
2018-03-15T18:07:09.557Z,68.08
2018-03-15T18:09:37.171Z,68.03
2018-03-15T18:12:04.889Z,67.93
2018-03-15T18:14:32.501Z,67.95
2018-03-15T18:17:00.108Z,68.07
2018-03-15T18:19:27.736Z,68.15
2018-03-15T18:21:55.418Z,68.44
2018-03-15T18:24:23.044Z,68.30
2018-03-15T18:26:50.757Z,68.27
2018-03-15T18:29:18.380Z,68.30
2018-03-15T18:31:46.090Z,68.42
2018-03-15T18:34:13.725Z,68.53
2018-03-15T18:36:41.437Z,68.41
2018-03-15T18:39:09.062Z,68.37
2018-03-15T18:41:36.664Z,68.35
2018-03-15T18:44:04.387Z,68.31
2018-03-15T18:46:32.061Z,68.18
2018-03-15T18:48:59.727Z,68.09
2018-03-15T18:51:27.380Z,68.14
2018-03-15T18:53:55.017Z,67.96
2018-03-15T18:56:22.712Z,67.90
2018-03-15T18:58:50.364Z,67.66
2018-03-15T19:01:18.003Z,67.51
2018-03-15T19:03:45.595Z,67.43
2018-03-15T19:06:13.219Z,67.29
2018-03-15T19:08:40.853Z,67.39
2018-03-15T19:11:08.485Z,66.92
2018-03-15T19:13:36.299Z,66.46
2018-03-15T19:16:03.936Z,66.50
2018-03-15T19:18:31.565Z,66.50
2018-03-15T19:20:59.236Z,66.24
2018-03-15T19:23:27.769Z,66.02
2018-03-15T19:25:55.408Z,66.07
2018-03-15T19:28:23.020Z,65.31
2018-03-15T19:30:50.698Z,64.45
2018-03-15T19:33:18.373Z,63.31
2018-03-15T19:35:45.999Z,62.95
2018-03-15T19:38:13.692Z,61.92
2018-03-15T19:40:41.364Z,61.95
2018-03-15T19:43:09.034Z,61.57
2018-03-15T19:45:36.675Z,61.32
2018-03-15T19:48:05.201Z,61.15
2018-03-15T19:50:32.814Z,61.19
2018-03-15T19:53:00.460Z,61.11
2018-03-15T19:55:28.147Z,60.51
2018-03-15T19:57:55.812Z,60.52
2018-03-15T20:00:23.435Z,60.48
2018-03-15T20:02:51.077Z,60.12
2018-03-15T20:05:18.705Z,60.53
2018-03-15T20:07:46.337Z,59.74
2018-03-15T20:10:13.985Z,60.13
2018-03-15T20:12:41.695Z,60.31
2018-03-15T20:15:09.352Z,60.48
2018-03-15T20:17:37.533Z,60.63
2018-03-15T20:20:05.165Z,60.44
2018-03-15T20:22:38.540Z,60.52
2018-03-15T20:25:06.171Z,60.30
2018-03-15T20:27:39.518Z,60.42
2018-03-15T20:30:07.245Z,60.39
2018-03-15T20:32:40.583Z,60.67
2018-03-15T20:35:08.213Z,60.61
2018-03-15T20:37:35.885Z,60.79
2018-03-15T20:40:09.005Z,60.83
2018-03-15T20:42:36.617Z,60.77
2018-03-15T20:45:04.240Z,60.95
2018-03-15T20:47:37.451Z,61.06
2018-03-15T20:50:05.084Z,61.29
2018-03-15T20:52:32.701Z,61.53
2018-03-15T20:55:00.316Z,61.26
2018-03-15T20:57:27.979Z,61.42
2018-03-15T20:59:55.746Z,61.61
2018-03-15T21:02:23.396Z,61.55
2018-03-15T21:04:51.071Z,61.79
2018-03-15T21:07:18.735Z,61.81
2018-03-15T21:09:46.336Z,62.06
2018-03-15T21:12:13.953Z,62.11
2018-03-15T21:14:41.630Z,62.14
2018-03-15T21:17:09.256Z,62.43
2018-03-15T21:19:36.874Z,62.58
2018-03-15T21:22:04.607Z,62.63
2018-03-15T21:24:32.231Z,62.46
2018-03-15T21:26:59.962Z,62.44
2018-03-15T21:29:27.700Z,62.57
2018-03-15T21:31:55.313Z,62.76
2018-03-15T21:34:23.003Z,62.63
2018-03-15T21:36:50.701Z,62.80
2018-03-15T21:39:18.327Z,63.21
2018-03-15T21:41:45.939Z,63.05
2018-03-15T21:44:13.564Z,63.02
2018-03-15T21:46:41.236Z,63.20
2018-03-15T21:49:08.872Z,63.06
2018-03-15T21:51:36.480Z,63.22
2018-03-15T21:54:04.113Z,63.19
2018-03-15T21:56:31.798Z,63.35
2018-03-15T21:58:59.448Z,63.46
2018-03-15T22:01:27.055Z,63.46
2018-03-15T22:03:54.689Z,63.41
2018-03-15T22:06:22.339Z,63.42
2018-03-15T22:08:50.420Z,63.72
2018-03-15T22:11:18.039Z,63.49
2018-03-15T22:13:45.649Z,63.41
2018-03-15T22:16:13.293Z,63.55
2018-03-15T22:18:40.909Z,63.35
2018-03-15T22:21:08.540Z,63.65
2018-03-15T22:23:36.189Z,63.60
2018-03-15T22:26:03.873Z,63.76
2018-03-15T22:28:31.485Z,63.74
2018-03-15T22:30:59.122Z,63.81
2018-03-15T22:33:26.727Z,63.92
2018-03-15T22:35:54.362Z,64.05
2018-03-15T22:38:21.973Z,64.05
2018-03-15T22:40:49.603Z,64.18
2018-03-15T22:43:17.221Z,64.28
2018-03-15T22:45:44.851Z,64.49
2018-03-15T22:48:12.509Z,64.28
2018-03-15T22:50:40.165Z,64.43
2018-03-15T22:53:07.772Z,64.31
2018-03-15T22:55:35.419Z,64.11
2018-03-15T22:58:03.040Z,64.36
2018-03-15T23:00:30.659Z,64.55
2018-03-15T23:02:58.313Z,64.52
2018-03-15T23:05:25.934Z,64.34
2018-03-15T23:07:53.567Z,64.35
2018-03-15T23:10:21.176Z,64.53
2018-03-15T23:12:48.819Z,64.36
2018-03-15T23:15:16.493Z,64.50
2018-03-15T23:17:44.123Z,64.45
2018-03-15T23:20:11.793Z,64.73
2018-03-15T23:22:39.410Z,64.87
2018-03-15T23:25:07.012Z,64.64
2018-03-15T23:27:34.625Z,64.75
2018-03-15T23:30:02.262Z,64.68
2018-03-15T23:32:30.690Z,64.76
2018-03-15T23:34:58.403Z,64.86
2018-03-15T23:37:26.013Z,64.82
2018-03-15T23:39:53.639Z,64.58
2018-03-15T23:42:21.247Z,64.60
2018-03-15T23:44:48.877Z,64.53
2018-03-15T23:47:16.515Z,64.73
2018-03-15T23:49:44.292Z,64.86
2018-03-15T23:52:11.909Z,64.87
2018-03-15T23:54:39.609Z,64.91
2018-03-15T23:57:07.280Z,64.92
2018-03-15T23:59:34.892Z,65.02
